• Join FlightAware (Why Join?)
  • Login
  • US Flag 
10:59AM EDT


 

Airport Tracker/Info


-or-


 

Live Flight TrackerFlight Track Log ✈ SWA1719 ✈ 14-May-2013 ✈ KABQ - KHOU

Flight Track Log - Related Links

Times and Time Zones

All times are in EDT time to prevent confusion due to time zone crossing. See the SWA1719 flight status page for this flight to view local times or setup timezone preferences in your user account.

Time Position Orientation Groundspeed Altitude Reporting Facility
EDT Latitude Longitude Course Direction KTS MPH feet Rate Location/Type
09:03AM 35.0422 -106.5847 93° East 176 203 5,800  Level Albuquerque Center
09:04AM 35.0414 -106.5669 93° East 173 199 6,400 1,560 Climbing Albuquerque Center
09:05AM 34.9981 -106.5261 142° Southeast 212 244 7,900 1,320 Climbing Albuquerque Center
09:06AM 34.9392 -106.5142 171° South 242 278 9,100 1,680 Climbing Albuquerque Center
09:07AM 34.8614 -106.5172 182° South 264 304 11,300 2,460 Climbing Albuquerque Center
09:08AM 34.7881 -106.4753 155° Southeast 315 362 14,100 2,520 Climbing Albuquerque Center
09:09AM 34.7406 -106.3703 119° Southeast 348 400 16,500 2,520 Climbing Albuquerque Center
09:10AM 34.6886 -106.2597 120° Southeast 370 426 19,300 2,940 Climbing Albuquerque Center
09:11AM 34.6242 -106.1208 119° Southeast 383 441 22,500 2,760 Climbing Albuquerque Center
09:12AM 34.5672 -105.9992 120° Southeast 402 463 25,000 2,340 Climbing Albuquerque Center
09:13AM 34.5081 -105.8753 120° Southeast 416 479 27,300 2,160 Climbing Albuquerque Center
09:14AM 34.4492 -105.7517 120° Southeast 420 483 29,400 2,040 Climbing Albuquerque Center
09:15AM 34.3889 -105.6261 120° Southeast 426 490 31,500 2,100 Climbing Albuquerque Center
09:16AM 34.3306 -105.5031 120° Southeast 422 486 33,700 1,860 Climbing Albuquerque Center
09:17AM 34.2725 -105.3839 120° Southeast 414 476 35,300 1,200 Climbing Albuquerque Center
09:18AM 34.2161 -105.2642 120° Southeast 410 472 36,200 1,020 Climbing Albuquerque Center
09:19AM 34.1558 -105.1400 120° Southeast 415 478 37,400 1,200 Climbing Albuquerque Center
09:20AM 34.0953 -105.0144 120° Southeast 424 488 38,700 780 Climbing Albuquerque Center
09:21AM 34.0331 -104.8861 120° Southeast 431 496 39,000 120 Climbing Albuquerque Center
09:22AM 33.9708 -104.7617 121° Southeast 432 497 39,000  Level Albuquerque Center
09:23AM 33.9047 -104.6281 121° Southeast 431 496 39,000  Level Albuquerque Center
09:24AM 33.8428 -104.5019 121° Southeast 436 502 39,000  Level Albuquerque Center
09:25AM 33.7808 -104.3756 121° Southeast 439 505 39,000  Level Albuquerque Center
09:26AM 33.7164 -104.2456 121° Southeast 449 517 39,000  Level Albuquerque Center
09:27AM 33.6525 -104.1178 121° Southeast 448 516 39,000  Level Albuquerque Center
09:28AM 33.5886 -103.9867 120° Southeast 453 521 39,000  Level Albuquerque Center
09:29AM 33.5175 -103.8456 121° Southeast 457 526 39,000  Level Albuquerque Center
09:30AM 33.4528 -103.7144 121° Southeast 457 526 39,000  Level Albuquerque Center
09:31AM 33.3939 -103.5953 121° Southeast 461 531 39,000  Level Albuquerque Center
09:32AM 33.3314 -103.4619 119° Southeast 461 531 39,000  Level Albuquerque Center
09:33AM 33.2611 -103.3367 124° Southeast 457 526 39,000  Level Albuquerque Center
09:34AM 33.1953 -103.2078 121° Southeast 455 524 39,000  Level Albuquerque Center
09:35AM 33.1386 -103.0992 122° Southeast 459 528 39,000  Level Fort Worth Center
09:36AM 33.0714 -102.9683 121° Southeast 464 534 39,000  Level Fort Worth Center
09:37AM 33.0081 -102.8381 120° Southeast 464 534 39,000  Level Fort Worth Center
09:38AM 32.9386 -102.7078 122° Southeast 469 540 39,000  Level Fort Worth Center
09:39AM 32.8711 -102.5750 121° Southeast 469 540 39,000  Level Fort Worth Center
09:40AM 32.8033 -102.4428 121° Southeast 469 540 39,000  Level Fort Worth Center
09:41AM 32.7336 -102.3056 121° Southeast 476 548 39,000  Level Fort Worth Center
09:42AM 32.6617 -102.1733 123° Southeast 476 548 39,000  Level Fort Worth Center
09:43AM 32.5833 -102.0311 123° Southeast 470 541 39,000  Level Fort Worth Center
09:44AM 32.5131 -101.8994 122° Southeast 470 541 39,000  Level Fort Worth Center
09:45AM 32.4444 -101.7728 123° Southeast 470 541 39,000  Level Fort Worth Center
09:46AM 32.3758 -101.6442 122° Southeast 470 541 39,000  Level Fort Worth Center
09:47AM 32.3069 -101.5156 122° Southeast 470 541 39,000  Level Fort Worth Center
09:48AM 32.2381 -101.3872 122° Southeast 470 541 39,000  Level Fort Worth Center
09:49AM 32.1847 -101.2867 122° Southeast 470 541 39,000  Level Fort Worth Center
09:50AM 32.1000 -101.1236 121° Southeast 475 547 39,000  Level Fort Worth Center
09:51AM 32.0328 -100.9961 122° Southeast 475 547 39,000  Level Fort Worth Center
09:52AM 31.9669 -100.8858 125° Southeast 465 535 39,000  Level Fort Worth Center
09:53AM 31.8936 -100.7386 120° Southeast 465 535 39,000  Level Fort Worth Center
09:54AM 31.8256 -100.6261 125° Southeast 471 542 39,000  Level Fort Worth Center
09:55AM 31.7517 -100.4964 124° Southeast 471 542 39,000  Level Fort Worth Center
09:56AM 31.6797 -100.3647 123° Southeast 471 542 39,000  Level Fort Worth Center
09:57AM 31.6056 -100.2258 122° Southeast 471 542 39,000  Level Fort Worth Center
09:59AM 31.4775 -99.9939 123° Southeast 468 539 39,000  Level Houston Center
10:00AM 31.3931 -99.8394 123° Southeast 467 537 39,000  Level Houston Center
10:01AM 31.3192 -99.7106 124° Southeast 475 547 39,000  Level Houston Center
10:02AM 31.2486 -99.5828 123° Southeast 470 541 39,000  Level Houston Center
10:03AM 31.1972 -99.4372 112° Southeast 494 568 39,000  Level Houston Center
10:04AM 31.1667 -99.2839 103° East 488 562 39,000  Level Houston Center
10:05AM 31.1317 -99.1172 104° East 484 557 39,000  Level Houston Center
10:06AM 31.0997 -98.9644 104° East 482 555 39,000  Level Houston Center
10:07AM 31.0661 -98.8097 104° East 485 558 39,000  Level Houston Center
10:08AM 31.0333 -98.6556 104° East 487 560 39,000  Level Houston Center
10:09AM 30.9986 -98.4994 105° East 494 568 39,000  Level Houston Center
10:10AM 30.9592 -98.3167 104° East 493 567 39,000  Level Houston Center
10:11AM 30.9233 -98.1603 105° East 495 570 39,000 -180 Level Houston Center
10:12AM 30.8892 -98.0053 104° East 494 568 38,700 -660 Descending Houston Center
10:13AM 30.8542 -97.8500 105° East 493 567 37,700 -960 Descending Houston Center
10:14AM 30.8194 -97.6925 104° East 497 572 36,800 -1,020 Descending Houston Center
10:15AM 30.7833 -97.5358 105° East 500 575 35,600 -1,860 Descending Houston Center
10:16AM 30.7408 -97.3533 105° East 504 580 33,000 -1,980 Descending Houston Center
10:17AM 30.7072 -97.1992 104° East 498 573 31,600 -2,340 Descending Houston Center
10:18AM 30.6717 -97.0422 105° East 501 577 28,200 -3,000 Descending Houston Center
10:20AM 30.6361 -96.8861 105° East 493 567 25,500 -2,160 Descending Houston Center
10:21AM 30.6028 -96.7422 105° East 462 532 23,800 -2,040 Descending Houston Center
10:22AM 30.5494 -96.6181 116° Southeast 428 493 21,400 -2,460 Descending Houston Center
10:22AM 30.4669 -96.5225 135° Southeast 398 458 19,000 -2,340 Descending Houston Center
10:24AM 30.3900 -96.4269 133° Southeast 390 449 16,900 -2,160 Descending Houston Center
10:25AM 30.3072 -96.3278 134° Southeast 380 437 14,300 -2,460 Descending Houston Center
10:26AM 30.2431 -96.2500 134° Southeast 372 428 12,000 -1,740 Descending Houston Center
10:27AM 30.1572 -96.1797 145° Southeast 352 405 11,000 -600 Descending Houston Center
10:27AM 30.0847 -96.1422 156° South 353 406 11,000  Level Houston Center
10:28AM 30.0525 -96.1256 156° South 352 405 11,000  Level Houston Center
10:29AM 29.9836 -96.0883 155° Southeast 353 406 11,000  Level Houston Center
10:29AM 29.9628 -96.0775 156° South 353 406 11,000  Level Houston Center
10:30AM 29.8936 -96.0408 155° Southeast 354 407 11,000  Level Houston Center
10:30AM 29.8739 -96.0292 153° Southeast 352 405 11,000 -120 Level Houston Center
10:31AM 29.8350 -95.9706 127° Southeast 283 326 10,900 -300 Descending Houston Center
10:31AM 29.8269 -95.9567 124° Southeast 298 343 10,700 -1,020 Descending Houston Center
10:32AM 29.7875 -95.8819 121° Southeast 286 329 9,800 -1,020 Descending Houston Center
10:32AM 29.7844 -95.8786 137° Southeast 289 333 9,700 -1,080 Descending Houston Center
10:33AM 29.7472 -95.8072 121° Southeast 296 341 8,800 -1,200 Descending Houston Center
10:33AM 29.7306 -95.7858 132° Southeast 293 337 8,500 -1,020 Descending Houston Center
10:34AM 29.6800 -95.7814 176° South 269 310 7,800 -1,020 Descending Houston Center
10:34AM 29.6575 -95.7761 168° South 268 308 7,500 -1,080 Descending Houston Center
10:35AM 29.6372 -95.7264 115° Southeast 256 295 6,700 -1,080 Descending Houston Center
10:35AM 29.6372 -95.7025 90° East 253 291 6,400 -720 Descending Houston Center
10:36AM 29.6425 -95.6439 84° East 249 287 6,000 -420 Descending Houston Center
10:36AM 29.6467 -95.6231 77° East 252 290 6,000 -720 Level Houston Center
10:37AM 29.6825 -95.5744 50° Northeast 265 305 5,300 -1,080 Descending Houston Center
10:37AM 29.6947 -95.5622 41° Northeast 262 302 4,900 -1,260 Descending Houston Center
10:38AM 29.7422 -95.5144 41° Northeast 266 306 3,900 -1,200 Descending Houston Center
10:38AM 29.7514 -95.5061 38° Northeast 267 307 3,700 -540 Descending Houston Center
10:39AM 29.7958 -95.4597 42° Northeast 228 262 3,400 -420 Descending Houston Center
10:39AM 29.7975 -95.4414 84° East 225 259 3,300 -420 Descending Houston Center
10:40AM 29.7683 -95.4103 137° Southeast 196 226 3,000 -300 Descending Houston Center
10:40AM 29.7561 -95.3992 142° Southeast 200 230 3,000 -600 Level Houston Center
10:41AM 29.7294 -95.3764 143° Southeast 195 224 2,500 -960 Descending Houston Center
10:41AM 29.7139 -95.3608 139° Southeast 195 224 2,000 -720 Descending Houston Center
10:42AM 29.6944 -95.3372 133° Southeast 146 168 1,800 -900 Descending Houston Center
10:42AM 29.6847 -95.3258 134° Southeast 157 181 1,100 -1,140 Descending Houston Center
10:43AM 29.6686 -95.3067 134° Southeast 130 150 700 -720 Descending Houston Center
10:43AM 29.6600 -95.2972 136° Southeast 133 153 400 -420 Descending Houston Center
10:44AM 29.6306 -95.2628 135° Southeast 131 151 100 -300 Descending Houston Center